Time;durP1;ratioP1;P1;durP2;ratioP2;P2;SDS_P1;SDS_P2;PMS_P1;PMS_P2;Temp;Humidity;BMP_temperature;BMP_pressure;BME280_temperature;BME280_humidity;BME280_pressure;Samples;Min_cycle;Max_cycle;Signal;HPM_P1;HPM_P2
2022/06/05 00:01:40;;;;;;;7.90;7.10;;;20.40;82.60;;;20.71;60.68;97639.31;5042890;28;20370;-38
2022/06/05 00:04:29;;;;;;;8.60;7.80;;;20.40;82.90;;;20.65;60.85;97636.47;5042226;28;20045;-39
2022/06/05 00:07:37;;;;;;;8.73;7.63;;;20.40;83.80;;;20.61;60.40;97637.97;5042342;28;20060;-38
2022/06/05 00:10:31;;;;;;;8.82;8.00;;;20.30;84.20;;;20.58;60.75;97632.97;5042422;28;20053;-38
2022/06/05 00:13:15;;;;;;;8.48;7.25;;;20.20;84.50;;;20.56;60.92;97626.13;5041413;28;20057;-38
2022/06/05 00:15:43;;;;;;;8.57;7.78;;;20.20;84.60;;;20.52;61.11;97622.22;5041136;28;20064;-38
2022/06/05 00:18:11;;;;;;;9.98;7.88;;;20.10;84.40;;;20.49;61.06;97628.09;5042005;28;20052;-38
2022/06/05 00:20:43;;;;;;;9.00;8.10;;;20.10;84.80;;;20.45;61.17;97625.00;5042027;28;20049;-38
2022/06/05 00:23:12;;;;;;;8.35;7.55;;;20.10;85.50;;;20.44;61.26;97609.84;5042106;28;20243;-38
2022/06/05 00:26:00;;;;;;;7.80;7.03;;;20.10;85.40;;;20.43;61.41;97617.13;5041386;28;20049;-38
2022/06/05 00:28:56;;;;;;;9.20;7.70;;;20.10;85.80;;;20.39;61.40;97607.78;5057715;28;20053;-38
2022/06/05 00:31:27;;;;;;;8.00;6.93;;;20.10;85.90;;;20.38;61.56;97606.16;5042385;28;20045;-39
2022/06/05 00:33:56;;;;;;;8.82;7.85;;;20.20;84.70;;;20.35;61.95;97606.59;5041936;28;20243;-39
2022/06/05 00:37:00;;;;;;;8.95;7.72;;;20.30;84.30;;;20.38;61.69;97602.63;5041974;28;20053;-39
2022/06/05 00:39:43;;;;;;;9.20;7.85;;;20.30;84.20;;;20.39;61.99;97605.09;5040922;28;20045;-38
2022/06/05 00:42:19;;;;;;;7.95;6.90;;;20.30;84.30;;;20.41;61.80;97610.28;5042246;28;20067;-39
2022/06/05 00:44:54;;;;;;;9.77;8.10;;;20.20;84.40;;;20.42;61.86;97620.88;5041797;28;20041;-39
2022/06/05 00:47:30;;;;;;;8.90;8.10;;;20.30;84.80;;;20.44;62.05;97628.75;5041867;28;20053;-38
2022/06/05 00:50:14;;;;;;;9.32;8.43;;;20.30;84.90;;;20.45;61.80;97633.09;5041021;28;20049;-39
2022/06/05 00:52:53;;;;;;;8.02;7.25;;;20.30;84.80;;;20.46;61.91;97634.78;5041965;28;20049;-39
2022/06/05 00:55:25;;;;;;;8.75;7.95;;;20.30;85.00;;;20.46;61.86;97637.47;5041811;28;20049;-38
2022/06/05 00:57:55;;;;;;;9.65;8.63;;;20.20;85.00;;;20.44;61.92;97642.28;5042254;28;20064;-39
2022/06/05 01:00:34;;;;;;;9.82;8.02;;;20.10;85.20;;;20.43;61.86;97648.72;5040733;28;20041;-38
2022/06/05 01:03:07;;;;;;;9.10;8.02;;;20.10;85.70;;;20.41;61.91;97648.13;5044562;28;20236;-38
2022/06/05 01:05:36;;;;;;;9.48;8.50;;;20.10;85.50;;;20.35;61.89;97649.84;5045633;28;20378;-38
2022/06/05 01:08:06;;;;;;;10.80;9.15;;;20.00;85.50;;;20.30;61.86;97665.06;5045235;28;20364;-38
2022/06/05 01:11:10;;;;;;;9.55;8.45;;;19.90;86.20;;;20.18;62.30;97671.25;5046298;28;20382;-38
2022/06/05 01:14:05;;;;;;;8.32;7.53;;;19.80;87.80;;;19.99;62.71;97678.47;5045585;28;20053;-38
2022/06/05 01:17:26;;;;;;;9.25;8.20;;;19.60;90.10;;;19.89;62.74;97675.44;5045918;28;20049;-38
2022/06/05 01:20:20;;;;;;;9.77;8.57;;;19.50;92.80;;;19.92;62.77;97682.28;5044445;28;20057;-38
2022/06/05 01:24:04;;;;;;;10.50;8.75;;;19.50;92.40;;;19.71;63.75;97699.63;5044401;28;20041;-38
2022/06/05 01:26:53;;;;;;;12.38;8.27;;;19.30;94.70;;;19.56;63.67;97689.13;5011000;28;20053;-38
2022/06/05 01:29:48;;;;;;;9.90;8.85;;;18.90;99.90;;;19.53;63.59;97681.47;5043976;28;20045;-38
2022/06/05 01:33:02;;;;;;;10.93;9.20;;;19.00;99.90;;;19.36;64.30;97667.66;5044355;28;20049;-38
2022/06/05 01:35:45;;;;;;;10.73;9.63;;;18.80;99.90;;;19.33;64.42;97666.25;5044194;28;20052;-38
2022/06/05 01:38:29;;;;;;;15.90;9.88;;;18.80;99.90;;;19.35;64.32;97653.34;5043993;28;20049;-38
2022/06/05 01:41:06;;;;;;;9.82;8.82;;;18.90;99.90;;;19.39;64.55;97649.16;5044959;28;20072;-38
2022/06/05 01:43:39;;;;;;;11.48;10.27;;;19.00;99.90;;;19.46;64.46;97660.75;5044135;28;20045;-39
2022/06/05 01:46:34;;;;;;;9.85;8.52;;;19.10;99.90;;;19.50;64.08;97653.03;5045405;28;20050;-38
2022/06/05 01:49:22;;;;;;;10.27;9.27;;;19.10;99.90;;;19.50;64.12;97653.03;5043461;28;20041;-38
2022/06/05 01:52:25;;;;;;;10.07;9.18;;;19.20;99.90;;;19.53;63.96;97649.09;5043739;28;20056;-39
2022/06/05 01:55:33;;;;;;;10.48;8.98;;;19.30;99.90;;;19.58;64.25;97631.19;5044487;28;20045;-38
2022/06/05 01:58:07;;;;;;;10.45;9.35;;;19.30;99.90;;;19.61;64.34;97617.22;5044595;28;20280;-38
2022/06/05 02:00:35;;;;;;;;;;;19.30;99.90;;;19.61;64.03;97608.31;5044100;28;20241;-38
2022/06/05 02:03:17;;;;;;;10.98;8.85;;;19.40;99.90;;;19.68;64.13;97598.28;5044910;28;19925;-39
2022/06/05 02:06:27;;;;;;;10.32;9.32;;;19.40;99.90;;;19.72;64.03;97599.53;5044410;28;20063;-38
2022/06/05 02:09:11;;;;;;;9.05;8.18;;;19.50;99.90;;;19.78;63.99;97601.34;5043158;28;20067;-38
2022/06/05 02:11:39;;;;;;;9.57;8.57;;;19.60;99.60;;;19.80;63.88;97585.75;5043511;28;20045;-38
2022/06/05 02:14:09;;;;;;;9.63;8.68;;;19.60;97.70;;;19.81;63.99;97571.19;5042936;28;20354;-38
2022/06/05 02:16:40;;;;;;;8.75;7.90;;;19.70;96.80;;;19.82;63.88;97564.72;5044184;28;20047;-38
2022/06/05 02:19:14;;;;;;;10.25;8.75;;;19.70;96.10;;;19.83;63.82;97555.59;5044120;28;20050;-39
2022/06/05 02:21:42;;;;;;;10.10;9.00;;;19.70;96.10;;;19.85;63.71;97547.25;5043261;28;20038;-38
2022/06/05 02:24:13;;;;;;;10.23;8.93;;;19.60;95.60;;;19.87;63.92;97534.34;5042840;28;20052;-39
2022/06/05 02:26:41;;;;;;;10.38;9.27;;;19.60;95.20;;;19.86;63.82;97520.00;5044085;28;20046;-38
2022/06/05 02:29:22;;;;;;;9.88;8.90;;;19.70;95.50;;;19.85;63.79;97504.03;5043720;28;20052;-38
2022/06/05 02:32:17;;;;;;;10.48;9.48;;;19.60;95.50;;;19.82;63.53;97499.91;5043077;28;20041;-39
2022/06/05 02:35:12;;;;;;;11.30;10.10;;;19.60;96.20;;;19.77;63.64;97470.03;5043960;28;20046;-39
2022/06/05 02:37:49;;;;;;;10.13;9.13;;;19.50;96.50;;;19.74;63.89;97446.19;5042766;28;20055;-39
2022/06/05 02:40:51;;;;;;;10.57;9.55;;;19.40;96.70;;;19.66;63.77;97435.66;5043763;28;20053;-39
2022/06/05 02:43:43;;;;;;;10.77;9.70;;;19.30;98.60;;;19.61;63.73;97432.78;5042943;28;20049;-39
2022/06/05 02:46:26;;;;;;;10.98;9.65;;;19.20;99.50;;;19.57;64.03;97426.19;5043442;28;20053;-38
2022/06/05 02:49:12;;;;;;;12.10;10.88;;;19.20;99.70;;;19.50;64.46;97415.44;5042409;28;20051;-39
2022/06/05 02:51:43;;;;;;;9.60;8.70;;;19.20;99.10;;;19.47;64.48;97415.91;5042719;28;20358;-38
2022/06/05 02:54:21;;;;;;;12.68;11.38;;;19.20;99.10;;;19.46;64.27;97408.84;5042568;28;20047;-38
2022/06/05 02:56:49;;;;;;;14.23;10.60;;;19.20;99.90;;;19.42;64.53;97400.38;5043629;28;20340;-38
2022/06/05 02:59:18;;;;;;;12.20;9.65;;;19.10;99.90;;;19.39;64.91;97400.03;5042406;28;20054;-38
2022/06/05 03:04:33;;;;;;;11.68;10.48;;;19.10;99.90;;;19.40;64.92;97437.56;5042563;28;20046;-38
2022/06/05 03:07:01;;;;;;;11.52;10.32;;;19.10;99.90;;;19.44;64.84;97437.94;5043448;28;20041;-38
2022/06/05 03:09:29;;;;;;;11.75;9.43;;;19.10;99.90;;;19.44;65.24;97437.94;5043052;28;20048;-38
2022/06/05 03:11:57;;;;;;;11.15;10.13;;;19.20;99.90;;;19.43;65.24;97430.91;5043300;28;20049;-38
2022/06/05 03:14:25;;;;;;;10.57;9.43;;;19.30;99.90;;;19.45;65.18;97434.22;5043137;28;20052;-38
2022/06/05 03:16:53;;;;;;;11.00;9.55;;;19.40;99.90;;;19.46;65.48;97431.28;5042298;28;20060;-38
2022/06/05 03:19:22;;;;;;;10.10;9.10;;;19.50;99.90;;;19.46;65.24;97411.56;5042962;28;20049;-38
2022/06/05 03:21:50;;;;;;;10.95;9.85;;;19.50;99.60;;;19.47;65.39;97399.72;5043006;28;20045;-38
2022/06/05 03:24:18;;;;;;;10.90;9.05;;;19.50;99.20;;;19.52;65.28;97396.34;5043089;28;20291;-38
2022/06/05 03:26:46;;;;;;;10.75;9.65;;;19.50;99.10;;;19.57;65.33;97393.81;5041971;28;20045;-38
2022/06/05 03:29:14;;;;;;;10.13;9.13;;;19.50;99.00;;;19.58;65.36;97400.84;5042477;28;20047;-38
2022/06/05 03:31:42;;;;;;;10.30;9.30;;;19.50;98.90;;;19.60;65.18;97399.59;5042820;28;20049;-38
2022/06/05 03:34:09;;;;;;;14.55;9.48;;;19.50;98.80;;;19.62;65.30;97389.38;5043230;28;20247;-38
2022/06/05 03:36:37;;;;;;;10.32;8.63;;;19.50;98.60;;;19.63;65.18;97403.69;5042982;28;20053;-38
2022/06/05 03:39:05;;;;;;;9.77;8.88;;;19.50;99.10;;;19.63;65.27;97450.41;5040003;28;20046;-38
2022/06/05 03:41:33;;;;;;;12.45;9.32;;;19.50;99.90;;;19.62;65.32;97499.25;5042719;28;20232;-47
2022/06/05 03:44:01;;;;;;;10.90;9.80;;;19.40;99.90;;;19.61;65.31;97549.72;5042474;28;20041;-39
2022/06/05 03:46:29;;;;;;;11.27;10.00;;;19.40;99.90;;;19.53;65.99;97557.28;5042724;28;20045;-38
2022/06/05 03:48:57;;;;;;;11.85;10.65;;;19.30;99.90;;;19.52;66.25;97547.53;5042493;28;20052;-38
2022/06/05 03:51:25;;;;;;;13.30;10.05;;;19.20;99.90;;;19.46;66.40;97554.63;5042024;28;20049;-38
2022/06/05 03:53:53;;;;;;;14.38;10.55;;;19.20;99.90;;;19.50;66.35;97584.72;5042520;28;20335;-38
2022/06/05 03:56:24;;;;;;;10.35;9.35;;;19.30;99.90;;;19.45;67.00;97588.91;5042515;28;20239;-38
2022/06/05 03:58:53;;;;;;;13.48;11.15;;;19.20;99.90;;;19.22;67.92;97600.28;5042365;28;20110;-38
2022/06/05 04:01:24;;;;;;;13.93;10.45;;;19.00;99.90;;;19.20;67.80;97610.47;5041398;28;20047;-38
2022/06/05 04:03:53;;;;;;;12.57;11.27;;;18.90;99.90;;;18.99;69.35;97616.19;5042454;28;20046;-38
2022/06/05 04:06:29;;;;;;;11.90;10.70;;;18.70;99.90;;;19.01;69.05;97614.91;5042168;28;20046;-38
2022/06/05 04:09:05;;;;;;;12.48;11.27;;;18.60;99.90;;;18.74;71.12;97597.19;5042214;28;20049;-38
2022/06/05 04:11:36;;;;;;;12.77;11.02;;;18.40;99.90;;;18.66;71.03;97587.47;5042747;28;20071;-38
2022/06/05 04:14:07;;;;;;;11.88;10.68;;;18.40;99.90;;;18.71;70.91;97571.50;5041302;28;20056;-38
2022/06/05 04:16:39;;;;;;;14.18;11.63;;;18.50;99.90;;;18.79;70.68;97560.44;5042603;28;20045;-38
2022/06/05 04:19:07;;;;;;;12.60;11.27;;;18.50;99.90;;;18.84;70.43;97535.56;5041111;28;20053;-38
2022/06/05 04:21:40;;;;;;;12.07;10.88;;;18.60;99.90;;;18.80;70.97;97523.56;5042145;28;20037;-39
2022/06/05 04:24:11;;;;;;;13.63;12.02;;;18.50;99.90;;;18.84;71.29;97511.28;5042157;28;20128;-38
2022/06/05 04:26:41;;;;;;;14.05;12.45;;;18.50;99.90;;;18.73;72.08;97495.75;5041092;28;20049;-38
2022/06/05 04:29:10;;;;;;;15.85;12.23;;;18.40;99.90;;;18.68;71.56;97497.25;5041702;28;20232;-38
2022/06/05 04:31:47;;;;;;;14.70;12.52;;;18.30;99.90;;;18.67;71.41;97495.59;5042208;28;20053;-38
2022/06/05 04:34:22;;;;;;;14.60;12.75;;;18.40;99.90;;;18.60;71.80;97472.41;5040202;28;20065;-39
2022/06/05 04:36:50;;;;;;;14.75;13.02;;;18.30;99.90;;;18.56;72.67;97457.72;5044064;28;20240;-38
2022/06/05 04:39:18;;;;;;;15.90;13.10;;;18.20;99.90;;;18.52;72.54;97468.09;5045856;28;20120;-38
2022/06/05 04:41:47;;;;;;;16.83;13.57;;;18.20;99.90;;;18.49;72.94;97509.81;5046328;28;20049;-38
2022/06/05 04:44:17;;;;;;;16.98;15.15;;;18.10;99.90;;;18.56;72.86;97546.69;5045967;28;20049;-38
2022/06/05 04:46:46;;;;;;;13.75;12.32;;;18.20;99.90;;;18.62;72.67;97565.50;5045953;28;20240;-39
2022/06/05 04:49:14;;;;;;;13.73;11.73;;;18.30;99.90;;;18.66;72.64;97574.81;5046305;28;20053;-38
2022/06/05 04:51:42;;;;;;;15.43;12.98;;;18.40;99.90;;;18.68;72.84;97593.47;5044976;28;20051;-39
2022/06/05 04:54:13;;;;;;;15.38;12.95;;;18.40;99.90;;;18.72;72.70;97596.59;5046175;28;20046;-38
2022/06/05 04:56:41;;;;;;;13.32;11.93;;;18.50;99.90;;;18.74;72.77;97598.00;5045017;28;20059;-38
2022/06/05 04:59:11;;;;;;;14.68;13.18;;;18.50;99.90;;;18.74;72.91;97597.19;5045855;28;20250;-38
2022/06/05 05:01:40;;;;;;;19.40;13.80;;;18.40;99.90;;;18.66;73.12;97609.06;5045762;28;20041;-39
2022/06/05 05:04:12;;;;;;;14.27;12.70;;;18.30;99.90;;;18.45;74.89;97634.41;5045486;28;20053;-39
2022/06/05 05:06:43;;;;;;;14.60;12.13;;;18.10;99.90;;;18.54;73.27;97643.13;5045829;28;20236;-39
2022/06/05 05:09:12;;;;;;;15.40;13.00;;;18.20;99.90;;;18.55;73.94;97658.22;5045630;28;20051;-39
2022/06/05 05:11:41;;;;;;;15.20;12.90;;;18.20;99.90;;;18.44;74.64;97665.94;5045549;28;20041;-39
2022/06/05 05:14:10;;;;;;;19.98;13.50;;;18.10;99.90;;;18.24;76.80;97670.53;5046332;28;20045;-38
2022/06/05 05:16:38;;;;;;;14.50;12.63;;;18.00;99.90;;;18.17;76.31;97670.56;5043812;28;20049;-38
2022/06/05 05:19:08;;;;;;;16.42;14.02;;;17.80;99.90;;;18.09;77.12;97660.00;5045202;28;20260;-39
2022/06/05 05:21:36;;;;;;;17.55;14.52;;;17.80;99.90;;;18.08;76.42;97645.69;5045744;28;20056;-38
2022/06/05 05:24:05;;;;;;;17.85;14.45;;;17.70;99.90;;;18.15;76.33;97612.53;5045197;28;20048;-39
2022/06/05 05:26:34;;;;;;;15.98;13.52;;;17.80;99.90;;;18.21;76.07;97552.41;5045764;28;20068;-39
2022/06/05 05:29:04;;;;;;;19.33;14.68;;;17.90;99.90;;;18.32;76.01;97483.53;5044928;28;20269;-39
2022/06/05 05:31:37;;;;;;;15.13;13.48;;;18.10;99.90;;;18.43;75.66;97488.25;5045295;28;20236;-39
2022/06/05 05:34:06;;;;;;;14.68;13.18;;;18.20;99.90;;;18.43;75.96;97528.69;5045104;28;20339;-39
2022/06/05 05:36:35;;;;;;;20.90;13.82;;;18.20;99.90;;;18.35;76.56;97562.09;5045137;28;20060;-39
2022/06/05 05:42:04;;;;;;;17.67;15.38;;;18.10;99.90;;;18.42;76.02;97589.03;5045148;28;20045;-39
2022/06/05 05:44:47;;;;;;;17.13;15.43;;;18.10;99.90;;;18.48;75.58;97580.91;5043609;28;20049;-39
2022/06/05 05:47:22;;;;;;;16.67;14.88;;;18.10;99.90;;;18.53;75.58;97560.56;5043373;28;20243;-39
2022/06/05 05:49:56;;;;;;;18.90;15.73;;;18.20;99.90;;;18.57;75.51;97567.19;5043629;28;20049;-39
2022/06/05 05:52:26;;;;;;;15.93;14.35;;;18.30;99.90;;;18.59;75.61;97565.97;5044892;28;20243;-39
2022/06/05 05:54:55;;;;;;;17.02;14.25;;;18.30;99.90;;;18.65;75.54;97558.84;5044658;28;20060;-39
2022/06/05 05:57:23;;;;;;;14.55;13.07;;;18.30;99.90;;;18.68;75.51;97561.13;5044720;28;20053;-39
2022/06/05 05:59:51;;;;;;;14.73;13.18;;;18.40;99.90;;;18.68;75.51;97558.44;5044496;28;20055;-39
2022/06/05 06:02:23;;;;;;;14.02;12.60;;;18.50;99.90;;;18.71;75.43;97544.53;5043851;28;20370;-40
2022/06/05 06:04:52;;;;;;;14.75;13.27;;;18.50;99.90;;;18.66;75.57;97550.56;5042426;28;20054;-39
2022/06/05 06:07:21;;;;;;;15.40;13.35;;;18.60;99.90;;;18.69;75.46;97538.53;5042991;28;20314;-39
2022/06/05 06:09:49;;;;;;;14.50;12.05;;;18.60;99.90;;;18.70;75.44;97550.94;5042071;28;20344;-39
2022/06/05 06:12:24;;;;;;;13.77;12.38;;;18.60;99.90;;;18.74;75.37;97543.25;5043561;28;20348;-39
2022/06/05 06:14:53;;;;;;;15.73;12.50;;;18.70;99.90;;;18.75;75.38;97528.75;5042954;28;20059;-40
2022/06/05 06:17:21;;;;;;;13.52;12.15;;;18.70;99.90;;;18.75;75.23;97523.34;5043340;28;20060;-40
2022/06/05 06:19:49;;;;;;;13.88;12.20;;;18.70;99.90;;;18.74;75.68;97525.22;5041552;28;20057;-39
2022/06/05 06:22:19;;;;;;;13.32;12.02;;;18.70;99.90;;;18.80;75.11;97532.47;5044249;28;20045;-39
2022/06/05 06:24:47;;;;;;;14.50;13.00;;;18.70;99.90;;;18.81;75.17;97536.00;5043137;28;20053;-39
2022/06/05 06:27:15;;;;;;;12.73;11.43;;;18.80;99.90;;;18.81;75.15;97542.22;5043350;28;20056;-39
2022/06/05 06:29:43;;;;;;;14.70;13.10;;;18.70;99.90;;;18.80;75.12;97553.22;5043071;28;20052;-39
2022/06/05 06:32:11;;;;;;;13.88;12.48;;;18.70;99.90;;;18.81;75.02;97542.22;5042992;28;20037;-39
2022/06/05 06:34:39;;;;;;;14.52;13.13;;;18.70;99.90;;;18.85;74.95;97523.75;5043153;28;20071;-39
2022/06/05 06:37:06;;;;;;;15.43;12.93;;;18.70;99.90;;;18.84;74.96;97519.38;5042947;28;20048;-40
2022/06/05 06:39:35;;;;;;;16.63;14.00;;;18.70;99.90;;;18.86;75.04;97531.63;5042761;28;20049;-40
2022/06/05 06:42:03;;;;;;;15.77;14.23;;;18.70;99.90;;;18.86;75.06;97498.41;5042635;28;20072;-39
2022/06/05 06:44:31;;;;;;;16.15;14.60;;;18.70;99.90;;;18.86;74.88;97483.06;5041221;28;20064;-39
2022/06/05 06:46:59;;;;;;;14.90;13.48;;;18.70;99.90;;;18.89;74.92;97496.09;5042827;28;20045;-39
2022/06/05 06:49:27;;;;;;;13.57;11.98;;;18.70;99.90;;;18.82;74.92;97462.94;5043315;28;20045;-39
2022/06/05 06:51:55;;;;;;;15.43;13.88;;;18.70;99.90;;;18.71;75.16;97471.72;5043107;28;20356;-40
2022/06/05 06:54:23;;;;;;;15.00;13.02;;;18.50;99.90;;;18.67;75.02;97448.94;5042429;28;20049;-39
2022/06/05 06:56:51;;;;;;;15.23;13.40;;;18.60;99.90;;;18.69;75.05;97449.56;5042914;28;20060;-39
2022/06/05 06:59:20;;;;;;;14.27;12.73;;;18.60;99.90;;;18.70;74.98;97433.13;5041478;28;20053;-39
2022/06/05 07:01:48;;;;;;;13.45;12.05;;;18.60;99.90;;;18.67;75.21;97387.75;5043486;28;20045;-39
2022/06/05 07:04:17;;;;;;;14.27;12.75;;;18.60;99.90;;;18.65;75.35;97432.97;5043457;28;20246;-39
2022/06/05 07:06:45;;;;;;;14.88;13.38;;;18.60;99.90;;;18.69;75.13;97425.28;5044165;28;20270;-39
2022/06/05 07:09:14;;;;;;;16.50;13.63;;;18.60;99.90;;;18.73;75.00;97399.53;5042423;28;20045;-39
2022/06/05 07:11:42;;;;;;;15.10;13.60;;;18.60;99.90;;;18.75;75.06;97399.31;5043102;28;20045;-39
2022/06/05 07:14:10;;;;;;;14.88;13.43;;;18.60;99.90;;;18.77;75.04;97418.81;5043000;28;20041;-40
2022/06/05 07:16:39;;;;;;;14.55;13.05;;;18.60;99.90;;;18.75;74.99;97391.22;5043054;28;20050;-40
2022/06/05 07:19:06;;;;;;;16.58;13.27;;;18.50;99.90;;;18.76;75.08;97380.19;5043000;28;20052;-39
2022/06/05 07:21:34;;;;;;;13.55;12.15;;;18.50;99.90;;;18.73;74.89;97399.53;5043151;28;20068;-40
2022/06/05 07:24:03;;;;;;;11.80;10.63;;;18.50;99.90;;;18.74;74.87;97395.78;5043007;28;20056;-39
2022/06/05 07:26:32;;;;;;;12.63;11.10;;;18.60;99.90;;;18.73;74.86;97396.00;5043108;28;20239;-39
2022/06/05 07:29:02;;;;;;;12.63;11.15;;;18.60;99.90;;;18.74;74.93;97403.88;5042659;28;20045;-39
2022/06/05 07:31:31;;;;;;;12.93;11.05;;;18.60;99.90;;;18.77;74.88;97400.75;5043123;28;20049;-40
2022/06/05 07:34:00;;;;;;;12.38;11.07;;;18.60;99.90;;;18.77;74.76;97381.88;5042532;28;20045;-40
2022/06/05 07:36:28;;;;;;;12.80;11.48;;;18.70;99.90;;;18.80;74.84;97383.31;5042887;28;20053;-39
2022/06/05 07:38:57;;;;;;;11.98;10.85;;;18.60;99.90;;;18.79;74.75;97370.88;5042349;28;20049;-39
2022/06/05 07:41:33;;;;;;;12.38;11.20;;;18.60;99.90;;;18.79;74.86;97373.56;5042691;28;20050;-39
2022/06/05 07:44:01;;;;;;;13.45;12.13;;;18.70;99.90;;;18.81;74.84;97372.31;5042032;28;20064;-39
2022/06/05 07:46:31;;;;;;;12.20;11.00;;;18.60;99.90;;;18.83;74.66;97377.50;5041620;28;20056;-39
2022/06/05 07:48:59;;;;;;;15.38;12.43;;;18.60;99.90;;;18.85;74.74;97384.31;5042067;28;20071;-40
2022/06/05 07:54:34;;;;;;;12.38;11.13;;;18.70;99.90;;;18.85;74.63;97399.69;5042171;28;20049;-39
2022/06/05 07:57:12;;;;;;;12.68;11.38;;;18.60;99.90;;;18.84;74.67;97392.63;5042401;28;20282;-39
2022/06/05 07:59:44;;;;;;;11.68;10.57;;;18.70;99.90;;;18.89;74.71;97382.81;5040987;28;20059;-39
2022/06/05 08:02:22;;;;;;;13.13;10.57;;;18.80;99.90;;;18.93;74.57;97385.91;5042369;28;20060;-40
2022/06/05 08:04:53;;;;;;;11.93;9.25;;;18.80;99.90;;;18.98;74.64;97391.47;5040780;28;20051;-40
2022/06/05 08:07:26;;;;;;;10.80;9.70;;;18.80;99.90;;;19.02;74.62;97395.38;5042195;28;20256;-39
2022/06/05 08:09:54;;;;;;;11.32;9.73;;;18.80;99.90;;;19.05;74.35;97389.53;5040430;28;20052;-39
2022/06/05 08:12:26;;;;;;;10.57;9.48;;;18.90;99.90;;;19.12;74.51;97365.19;5042631;28;20045;-39
2022/06/05 08:14:54;;;;;;;11.30;10.20;;;18.90;99.90;;;19.16;74.55;97376.38;5041091;28;20243;-41
2022/06/05 08:17:30;;;;;;;10.75;9.65;;;19.00;99.90;;;19.21;74.33;97371.13;5042230;28;20057;-40
2022/06/05 08:19:59;;;;;;;11.48;10.18;;;19.10;99.90;;;19.30;74.57;97371.66;5042275;28;20045;-41
2022/06/05 08:22:28;;;;;;;10.15;9.15;;;19.20;99.90;;;19.35;74.55;97374.50;5041780;28;20056;-41
2022/06/05 08:24:56;;;;;;;8.88;8.00;;;19.40;99.90;;;19.44;74.38;97376.72;5042132;28;20338;-40
2022/06/05 08:27:26;;;;;;;9.13;8.23;;;19.50;99.90;;;19.56;74.47;97376.78;5041680;28;20045;-40
2022/06/05 08:29:56;;;;;;;9.40;8.48;;;19.60;99.90;;;19.63;74.28;97374.81;5041598;28;20233;-41
2022/06/05 08:32:28;;;;;;;8.95;7.70;;;19.70;99.90;;;19.68;73.91;97366.06;5041616;28;20052;-40
2022/06/05 08:34:56;;;;;;;8.60;7.45;;;19.80;99.90;;;19.80;74.21;97368.84;5041697;28;20088;-40
2022/06/05 08:43:30;;;;;;;7.78;6.40;;;20.20;99.90;;;20.06;73.55;97348.75;5042010;28;20049;-40
2022/06/05 08:46:36;;;;;;;5.45;4.47;;;20.40;99.90;;;20.09;72.41;97350.19;5041867;28;20045;-40
2022/06/05 08:49:34;;;;;;;5.15;4.65;;;20.50;99.90;;;20.17;71.61;97344.44;5041607;28;20079;-41
2022/06/05 08:52:29;;;;;;;6.40;4.57;;;20.50;99.90;;;20.25;72.49;97355.75;5041353;28;20057;-40
2022/06/05 08:55:29;;;;;;;4.20;3.60;;;20.60;99.90;;;20.25;72.14;97353.03;5041716;28;20045;-40
2022/06/05 08:58:06;;;;;;;5.47;3.78;;;20.70;99.90;;;20.33;71.13;97360.00;5042248;28;20339;-40
2022/06/05 09:00:47;;;;;;;4.68;3.72;;;20.80;99.90;;;20.39;71.74;97350.16;5040998;28;20068;-40
2022/06/05 09:03:43;;;;;;;5.50;3.20;;;20.80;99.90;;;20.46;71.13;97362.50;5040843;28;20397;-40
2022/06/05 09:06:25;;;;;;;4.43;3.15;;;20.90;99.90;;;20.58;71.17;97361.72;5041154;28;20250;-41
2022/06/05 09:08:58;;;;;;;3.00;2.70;;;21.00;99.90;;;20.63;70.57;97360.00;5040382;28;20050;-40
2022/06/05 09:12:00;;;;;;;3.47;2.53;;;21.10;99.90;;;20.67;69.97;97362.25;5040164;28;20059;-41
2022/06/05 09:14:56;;;;;;;2.78;2.40;;;21.10;99.90;;;20.69;69.13;97366.34;5040648;28;20041;-40
2022/06/05 09:17:25;;;;;;;3.20;2.53;;;21.10;99.90;;;20.77;69.71;97373.31;5041397;28;20049;-41
2022/06/05 09:19:57;;;;;;;2.40;2.03;;;21.10;99.90;;;20.86;69.83;97380.03;5041635;28;20046;-40
2022/06/05 09:22:57;;;;;;;3.10;2.28;;;21.20;99.90;;;20.94;69.34;97379.69;5041660;28;20237;-40
2022/06/05 09:26:19;;;;;;;4.18;2.65;;;21.30;99.90;;;21.00;69.67;97364.41;5044252;28;20048;-41
2022/06/05 09:28:58;;;;;;;4.68;2.47;;;21.30;99.90;;;21.07;69.30;97373.19;5042468;28;20065;-40
2022/06/05 09:31:44;;;;;;;2.47;2.22;;;21.30;99.90;;;21.09;69.03;97386.50;5043388;28;20056;-40
2022/06/05 09:34:24;;;;;;;3.50;2.53;;;21.40;99.90;;;21.11;68.90;97379.81;5044431;28;20071;-40
2022/06/05 09:37:39;;;;;;;3.60;2.58;;;21.40;99.90;;;21.16;68.78;97390.75;5043827;28;20053;-40
2022/06/05 09:40:34;;;;;;;4.47;2.85;;;21.50;99.90;;;21.29;68.86;97397.00;5043673;28;20057;-40
2022/06/05 09:43:34;;;;;;;4.45;2.90;;;21.70;99.90;;;21.37;68.13;97407.47;5045236;28;20063;-40
2022/06/05 09:46:38;;;;;;;4.00;2.78;;;21.80;99.90;;;21.36;66.94;97413.91;5044491;28;20041;-40
2022/06/05 09:49:27;;;;;;;2.45;2.15;;;21.80;99.90;;;21.41;66.85;97416.75;5044624;28;20239;-40
2022/06/05 09:51:55;;;;;;;3.33;2.55;;;21.90;99.90;;;21.63;67.30;97428.66;5045066;28;20099;-40
2022/06/05 09:54:32;;;;;;;3.67;2.67;;;22.10;99.90;;;21.82;66.70;97433.94;5044509;28;20045;-40
2022/06/05 10:00:37;;;;;;;6.15;2.60;;;22.50;99.90;;;22.15;66.67;97457.66;5044749;28;20053;-40
2022/06/05 10:03:21;;;;;;;3.83;2.60;;;22.70;99.90;;;22.23;66.34;97457.25;5044782;28;20209;-40
2022/06/05 10:06:07;;;;;;;;;;;22.70;99.90;;;22.35;66.18;97456.44;5045365;28;20053;-40
2022/06/05 10:08:59;;;;;;;3.50;2.80;;;22.90;99.90;;;22.56;65.43;97468.50;5044275;28;19916;-40
2022/06/05 10:11:54;;;;;;;4.50;3.53;;;23.10;99.90;;;22.69;65.48;97467.41;5043814;28;20057;-40
2022/06/05 10:15:16;;;;;;;3.38;2.90;;;23.30;99.90;;;22.83;64.85;97468.72;5044363;28;20045;-40
2022/06/05 10:17:51;;;;;;;4.95;4.20;;;23.40;99.90;;;22.94;64.78;97469.75;5044180;28;20075;-40
2022/06/05 10:20:40;;;;;;;3.45;3.15;;;23.50;99.90;;;23.06;64.99;97461.56;5044637;28;20045;-40
2022/06/05 10:23:25;;;;;;;3.85;3.33;;;23.60;99.90;;;23.15;64.61;97469.06;5044195;28;20340;-40
2022/06/05 10:26:27;;;;;;;4.30;3.50;;;23.80;99.90;;;23.29;64.12;97461.41;5044036;28;20290;-40
2022/06/05 10:29:17;;;;;;;3.88;3.30;;;23.90;99.90;;;23.26;62.91;97458.34;5043023;28;20045;-40
2022/06/05 10:32:23;;;;;;;5.18;3.60;;;24.00;99.90;;;23.40;63.59;97454.25;5044039;28;20051;-40
2022/06/05 10:35:40;;;;;;;3.83;3.35;;;24.10;99.90;;;23.52;63.75;97440.56;5034134;28;20065;-40
2022/06/05 10:38:25;;;;;;;4.72;4.10;;;24.20;99.90;;;23.51;62.83;97441.63;5026489;28;20058;-40
2022/06/05 10:40:59;;;;;;;4.82;3.55;;;24.20;99.90;;;23.55;63.45;97440.03;5043769;28;20053;-40
2022/06/05 10:43:30;;;;;;;4.20;3.80;;;24.10;99.90;;;23.57;63.34;97437.91;5042688;28;20053;-40
2022/06/05 10:46:26;;;;;;;5.70;3.63;;;24.10;99.90;;;23.61;63.15;97435.50;5042516;28;20351;-40
2022/06/05 10:49:09;;;;;;;5.68;4.05;;;24.20;99.90;;;23.67;63.45;97420.91;5043590;28;20067;-40
2022/06/05 10:51:43;;;;;;;;;;;24.20;99.90;;;23.65;62.61;97423.91;5043968;28;20041;-40
2022/06/05 10:54:25;;;;;;;5.50;3.72;;;24.30;99.90;;;23.79;62.54;97413.53;5043527;28;19942;-40
2022/06/05 10:57:23;;;;;;;4.30;3.35;;;24.40;99.90;;;23.82;63.12;97414.91;5043635;28;20248;-40
2022/06/05 11:00:18;;;;;;;4.35;3.70;;;24.40;99.90;;;23.84;62.22;97418.19;5043478;28;20045;-40
2022/06/05 11:02:56;;;;;;;5.15;3.50;;;24.30;99.90;;;23.85;62.62;97417.94;5043616;28;20049;-40
2022/06/05 11:06:08;;;;;;;4.55;4.15;;;24.40;99.90;;;23.83;62.32;97419.28;5043575;28;20242;-40
2022/06/05 11:09:28;;;;;;;3.75;3.33;;;24.40;99.90;;;23.82;62.65;97410.28;5041255;28;20052;-40
2022/06/05 11:15:57;;;;;;;2.85;2.40;;;24.20;99.90;;;23.71;61.49;97422.06;5043095;28;20049;-40
2022/06/05 11:18:57;;;;;;;3.15;2.67;;;24.10;99.90;;;23.62;61.46;97412.72;5042319;28;20063;-40